sensor_id;sensor_type;location;lat;lon;timestamp;pressure;altitude;pressure_sealevel;temperature;humidity
69980;BME280;57318;56.232;43.944;2022-07-18T00:00:25;98987.56;;;19.25;64.23
69980;BME280;57318;56.232;43.944;2022-07-18T00:02:50;98992.00;;;19.18;64.79
69980;BME280;57318;56.232;43.944;2022-07-18T00:05:16;98983.69;;;19.13;65.11
69980;BME280;57318;56.232;43.944;2022-07-18T00:07:42;98988.81;;;19.07;65.44
69980;BME280;57318;56.232;43.944;2022-07-18T00:10:08;98984.44;;;19.06;65.49
69980;BME280;57318;56.232;43.944;2022-07-18T00:12:33;98981.09;;;19.04;65.49
69980;BME280;57318;56.232;43.944;2022-07-18T00:14:59;98977.97;;;19.01;65.78
69980;BME280;57318;56.232;43.944;2022-07-18T00:17:24;98996.06;;;18.92;66.79
69980;BME280;57318;56.232;43.944;2022-07-18T00:19:52;98999.13;;;18.89;66.97
69980;BME280;57318;56.232;43.944;2022-07-18T00:22:18;98985.38;;;18.84;67.43
69980;BME280;57318;56.232;43.944;2022-07-18T00:24:43;98984.06;;;18.80;67.48
69980;BME280;57318;56.232;43.944;2022-07-18T00:27:09;98989.81;;;18.76;67.59
69980;BME280;57318;56.232;43.944;2022-07-18T00:29:35;98993.56;;;18.75;67.59
69980;BME280;57318;56.232;43.944;2022-07-18T00:32:06;98987.50;;;18.73;67.89
69980;BME280;57318;56.232;43.944;2022-07-18T00:34:32;98992.25;;;18.71;67.89
69980;BME280;57318;56.232;43.944;2022-07-18T00:36:58;98988.06;;;18.69;68.04
69980;BME280;57318;56.232;43.944;2022-07-18T00:39:25;98989.00;;;18.61;68.84
69980;BME280;57318;56.232;43.944;2022-07-18T00:41:50;98998.84;;;18.54;69.21
69980;BME280;57318;56.232;43.944;2022-07-18T00:44:21;98986.13;;;18.48;69.74
69980;BME280;57318;56.232;43.944;2022-07-18T00:46:52;98988.56;;;18.43;70.19
69980;BME280;57318;56.232;43.944;2022-07-18T00:49:18;98982.50;;;18.40;70.45
69980;BME280;57318;56.232;43.944;2022-07-18T00:51:44;98986.03;;;18.41;70.62
69980;BME280;57318;56.232;43.944;2022-07-18T00:54:10;98986.22;;;18.39;71.03
69980;BME280;57318;56.232;43.944;2022-07-18T00:56:35;98986.22;;;18.39;70.95
69980;BME280;57318;56.232;43.944;2022-07-18T00:59:02;98989.09;;;18.38;71.04
69980;BME280;57318;56.232;43.944;2022-07-18T01:01:28;98985.56;;;18.37;70.81
69980;BME280;57318;56.232;43.944;2022-07-18T01:04:26;98988.91;;;18.39;70.96
69980;BME280;57318;56.232;43.944;2022-07-18T01:06:52;98988.25;;;18.37;70.91
69980;BME280;57318;56.232;43.944;2022-07-18T01:09:19;98987.25;;;18.38;71.16
69980;BME280;57318;56.232;43.944;2022-07-18T01:11:45;98987.59;;;18.35;72.34
69980;BME280;57318;56.232;43.944;2022-07-18T01:14:11;98984.28;;;18.33;71.91
69980;BME280;57318;56.232;43.944;2022-07-18T01:16:37;98981.41;;;18.35;72.16
69980;BME280;57318;56.232;43.944;2022-07-18T01:19:03;98979.72;;;18.34;72.32
69980;BME280;57318;56.232;43.944;2022-07-18T01:21:29;98978.53;;;18.36;72.07
69980;BME280;57318;56.232;43.944;2022-07-18T01:23:55;98980.34;;;18.36;72.58
69980;BME280;57318;56.232;43.944;2022-07-18T01:26:21;98972.41;;;18.43;72.08
69980;BME280;57318;56.232;43.944;2022-07-18T01:28:47;98979.81;;;18.40;72.33
69980;BME280;57318;56.232;43.944;2022-07-18T01:31:13;98976.09;;;18.42;72.08
69980;BME280;57318;56.232;43.944;2022-07-18T01:33:39;98983.00;;;18.44;72.19
69980;BME280;57318;56.232;43.944;2022-07-18T01:36:06;98981.38;;;18.50;72.22
69980;BME280;57318;56.232;43.944;2022-07-18T01:38:32;98980.66;;;18.56;72.39
69980;BME280;57318;56.232;43.944;2022-07-18T01:40:58;98989.47;;;18.65;71.66
69980;BME280;57318;56.232;43.944;2022-07-18T01:43:25;98984.56;;;18.68;71.84
69980;BME280;57318;56.232;43.944;2022-07-18T01:45:50;98980.28;;;18.74;72.21
69980;BME280;57318;56.232;43.944;2022-07-18T01:48:17;98982.22;;;18.80;71.61
69980;BME280;57318;56.232;43.944;2022-07-18T01:50:43;98982.97;;;18.89;71.44
69980;BME280;57318;56.232;43.944;2022-07-18T01:53:08;98983.06;;;18.96;71.15
69980;BME280;57318;56.232;43.944;2022-07-18T01:55:34;98985.19;;;19.00;71.09
69980;BME280;57318;56.232;43.944;2022-07-18T01:58:00;98990.56;;;19.15;70.34
69980;BME280;57318;56.232;43.944;2022-07-18T02:00:26;98983.00;;;19.25;69.89
69980;BME280;57318;56.232;43.944;2022-07-18T02:02:52;98979.72;;;19.30;69.68
69980;BME280;57318;56.232;43.944;2022-07-18T02:05:18;98978.06;;;19.29;69.65
69980;BME280;57318;56.232;43.944;2022-07-18T02:07:44;98984.34;;;19.36;69.70
69980;BME280;57318;56.232;43.944;2022-07-18T02:10:15;98982.00;;;19.48;69.02
69980;BME280;57318;56.232;43.944;2022-07-18T02:12:41;98978.72;;;19.53;68.90
69980;BME280;57318;56.232;43.944;2022-07-18T02:15:27;98978.97;;;19.58;68.74
69980;BME280;57318;56.232;43.944;2022-07-18T02:17:52;98976.53;;;19.63;68.68
69980;BME280;57318;56.232;43.944;2022-07-18T02:20:18;98975.75;;;19.69;68.70
69980;BME280;57318;56.232;43.944;2022-07-18T02:22:44;98977.63;;;19.69;68.47
69980;BME280;57318;56.232;43.944;2022-07-18T02:25:11;98975.56;;;19.71;68.42
69980;BME280;57318;56.232;43.944;2022-07-18T02:27:37;98964.34;;;19.67;68.41
69980;BME280;57318;56.232;43.944;2022-07-18T02:30:04;98967.63;;;19.62;68.25
69980;BME280;57318;56.232;43.944;2022-07-18T02:32:31;98958.63;;;19.55;68.48
69980;BME280;57318;56.232;43.944;2022-07-18T02:34:56;98952.94;;;19.43;68.92
69980;BME280;57318;56.232;43.944;2022-07-18T02:37:22;98947.56;;;19.43;68.88
69980;BME280;57318;56.232;43.944;2022-07-18T02:39:48;98939.59;;;19.35;68.98
69980;BME280;57318;56.232;43.944;2022-07-18T02:42:14;98942.69;;;19.32;69.03
69980;BME280;57318;56.232;43.944;2022-07-18T02:44:39;98935.75;;;19.23;69.72
69980;BME280;57318;56.232;43.944;2022-07-18T02:47:06;98938.69;;;19.28;69.39
69980;BME280;57318;56.232;43.944;2022-07-18T02:49:31;98937.00;;;19.27;69.29
69980;BME280;57318;56.232;43.944;2022-07-18T02:52:06;98937.00;;;19.27;69.49
69980;BME280;57318;56.232;43.944;2022-07-18T02:54:34;98945.75;;;19.29;69.23
69980;BME280;57318;56.232;43.944;2022-07-18T02:57:00;98946.56;;;19.29;69.47
69980;BME280;57318;56.232;43.944;2022-07-18T02:59:26;98947.78;;;19.27;69.87
69980;BME280;57318;56.232;43.944;2022-07-18T03:01:53;98949.91;;;19.32;69.57
69980;BME280;57318;56.232;43.944;2022-07-18T03:04:20;98949.53;;;19.35;69.67
69980;BME280;57318;56.232;43.944;2022-07-18T03:06:46;98939.84;;;19.40;69.47
69980;BME280;57318;56.232;43.944;2022-07-18T03:09:13;98944.09;;;19.50;69.48
69980;BME280;57318;56.232;43.944;2022-07-18T03:11:38;98943.75;;;19.59;69.24
69980;BME280;57318;56.232;43.944;2022-07-18T03:14:04;98948.19;;;19.67;68.74
69980;BME280;57318;56.232;43.944;2022-07-18T03:16:29;98947.41;;;19.73;68.82
69980;BME280;57318;56.232;43.944;2022-07-18T03:18:55;98948.97;;;19.82;68.55
69980;BME280;57318;56.232;43.944;2022-07-18T03:21:21;98940.53;;;19.92;68.09
69980;BME280;57318;56.232;43.944;2022-07-18T03:23:46;98946.22;;;20.04;67.71
69980;BME280;57318;56.232;43.944;2022-07-18T03:26:14;98949.25;;;19.94;68.24
69980;BME280;57318;56.232;43.944;2022-07-18T03:28:40;98948.91;;;20.04;67.88
69980;BME280;57318;56.232;43.944;2022-07-18T03:31:06;98944.44;;;20.18;67.73
69980;BME280;57318;56.232;43.944;2022-07-18T03:33:32;98936.84;;;20.28;67.34
69980;BME280;57318;56.232;43.944;2022-07-18T03:35:58;98934.00;;;20.43;66.86
69980;BME280;57318;56.232;43.944;2022-07-18T03:38:24;98929.72;;;20.55;66.27
69980;BME280;57318;56.232;43.944;2022-07-18T03:40:49;98937.06;;;20.68;66.00
69980;BME280;57318;56.232;43.944;2022-07-18T03:43:15;98938.56;;;20.78;65.84
69980;BME280;57318;56.232;43.944;2022-07-18T03:45:40;98939.44;;;20.85;65.74
69980;BME280;57318;56.232;43.944;2022-07-18T03:48:06;98932.59;;;20.89;65.63
69980;BME280;57318;56.232;43.944;2022-07-18T03:50:32;98927.03;;;21.04;65.33
69980;BME280;57318;56.232;43.944;2022-07-18T03:52:59;98931.22;;;21.13;64.91
69980;BME280;57318;56.232;43.944;2022-07-18T03:55:25;98921.28;;;21.27;64.35
69980;BME280;57318;56.232;43.944;2022-07-18T03:57:51;98913.78;;;21.29;64.30
69980;BME280;57318;56.232;43.944;2022-07-18T04:00:16;98914.22;;;21.33;64.21
69980;BME280;57318;56.232;43.944;2022-07-18T04:02:44;98912.97;;;21.42;63.80
69980;BME280;57318;56.232;43.944;2022-07-18T04:05:11;98921.56;;;21.52;63.47
69980;BME280;57318;56.232;43.944;2022-07-18T04:07:37;98929.66;;;21.66;62.85
69980;BME280;57318;56.232;43.944;2022-07-18T04:10:05;98927.38;;;21.89;62.47
69980;BME280;57318;56.232;43.944;2022-07-18T04:12:31;98930.47;;;22.13;62.14
69980;BME280;57318;56.232;43.944;2022-07-18T04:14:57;98920.41;;;22.53;60.97
69980;BME280;57318;56.232;43.944;2022-07-18T04:17:23;98922.97;;;22.87;59.97
69980;BME280;57318;56.232;43.944;2022-07-18T04:19:49;98917.00;;;23.17;58.98
69980;BME280;57318;56.232;43.944;2022-07-18T04:22:15;98911.69;;;23.35;58.59
69980;BME280;57318;56.232;43.944;2022-07-18T04:24:41;98915.88;;;23.63;57.87
69980;BME280;57318;56.232;43.944;2022-07-18T04:27:06;98918.44;;;23.83;57.39
69980;BME280;57318;56.232;43.944;2022-07-18T04:29:32;98914.63;;;23.91;56.66
69980;BME280;57318;56.232;43.944;2022-07-18T04:31:58;98910.41;;;23.95;56.25
69980;BME280;57318;56.232;43.944;2022-07-18T04:34:24;98898.59;;;23.83;56.23
69980;BME280;57318;56.232;43.944;2022-07-18T04:36:50;98914.69;;;23.84;56.23
69980;BME280;57318;56.232;43.944;2022-07-18T04:39:16;98915.41;;;23.98;56.00
69980;BME280;57318;56.232;43.944;2022-07-18T04:41:43;98917.06;;;23.99;56.08
69980;BME280;57318;56.232;43.944;2022-07-18T04:44:09;98913.84;;;24.09;55.82
69980;BME280;57318;56.232;43.944;2022-07-18T04:46:34;98921.00;;;24.22;55.58
69980;BME280;57318;56.232;43.944;2022-07-18T04:49:00;98912.28;;;24.38;55.12
69980;BME280;57318;56.232;43.944;2022-07-18T04:51:26;98918.75;;;24.37;54.93
69980;BME280;57318;56.232;43.944;2022-07-18T04:53:51;98910.75;;;24.42;54.76
69980;BME280;57318;56.232;43.944;2022-07-18T04:56:20;98918.47;;;24.45;54.45
69980;BME280;57318;56.232;43.944;2022-07-18T04:58:47;98910.78;;;24.61;53.80
69980;BME280;57318;56.232;43.944;2022-07-18T05:01:12;98909.22;;;24.72;53.51
69980;BME280;57318;56.232;43.944;2022-07-18T05:03:38;98907.44;;;24.77;53.33
69980;BME280;57318;56.232;43.944;2022-07-18T05:06:04;98916.66;;;24.76;53.41
69980;BME280;57318;56.232;43.944;2022-07-18T05:08:30;98914.09;;;24.63;53.96
69980;BME280;57318;56.232;43.944;2022-07-18T05:10:55;98918.09;;;24.79;53.65
69980;BME280;57318;56.232;43.944;2022-07-18T05:13:21;98915.25;;;25.04;52.57
69980;BME280;57318;56.232;43.944;2022-07-18T05:15:47;98905.75;;;25.25;51.52
69980;BME280;57318;56.232;43.944;2022-07-18T05:18:12;98901.69;;;25.46;51.02
69980;BME280;57318;56.232;43.944;2022-07-18T05:20:38;98900.56;;;25.78;50.25
69980;BME280;57318;56.232;43.944;2022-07-18T05:23:03;98901.72;;;25.58;50.72
69980;BME280;57318;56.232;43.944;2022-07-18T05:25:29;98894.75;;;25.62;50.82
69980;BME280;57318;56.232;43.944;2022-07-18T05:27:55;98893.44;;;25.65;50.38
69980;BME280;57318;56.232;43.944;2022-07-18T05:30:21;98894.88;;;25.79;49.69
69980;BME280;57318;56.232;43.944;2022-07-18T05:32:48;98896.66;;;25.85;49.46
69980;BME280;57318;56.232;43.944;2022-07-18T05:35:15;98891.81;;;25.87;49.19
69980;BME280;57318;56.232;43.944;2022-07-18T05:37:41;98894.19;;;25.96;48.98
69980;BME280;57318;56.232;43.944;2022-07-18T05:40:09;98896.09;;;26.19;47.88
69980;BME280;57318;56.232;43.944;2022-07-18T05:42:36;98898.56;;;26.20;47.75
69980;BME280;57318;56.232;43.944;2022-07-18T05:45:02;98900.84;;;26.11;47.68
69980;BME280;57318;56.232;43.944;2022-07-18T05:47:29;98896.47;;;25.99;47.93
69980;BME280;57318;56.232;43.944;2022-07-18T05:49:55;98890.78;;;26.12;47.74
69980;BME280;57318;56.232;43.944;2022-07-18T05:52:21;98891.50;;;26.19;47.64
69980;BME280;57318;56.232;43.944;2022-07-18T05:54:46;98893.38;;;26.31;47.40
69980;BME280;57318;56.232;43.944;2022-07-18T05:57:12;98881.63;;;26.42;46.98
69980;BME280;57318;56.232;43.944;2022-07-18T05:59:38;98887.31;;;26.40;46.99
69980;BME280;57318;56.232;43.944;2022-07-18T06:02:04;98892.59;;;26.47;46.96
69980;BME280;57318;56.232;43.944;2022-07-18T06:04:29;98882.03;;;26.74;46.63
69980;BME280;57318;56.232;43.944;2022-07-18T06:06:55;98880.91;;;26.87;46.26
69980;BME280;57318;56.232;43.944;2022-07-18T06:09:20;98890.84;;;26.93;45.94
69980;BME280;57318;56.232;43.944;2022-07-18T06:11:46;98891.44;;;26.95;45.83
69980;BME280;57318;56.232;43.944;2022-07-18T06:14:12;98894.50;;;26.99;45.46
69980;BME280;57318;56.232;43.944;2022-07-18T06:16:37;98891.81;;;26.87;46.14
69980;BME280;57318;56.232;43.944;2022-07-18T06:19:03;98901.75;;;26.93;45.91
69980;BME280;57318;56.232;43.944;2022-07-18T06:21:29;98900.56;;;26.89;46.20
69980;BME280;57318;56.232;43.944;2022-07-18T06:23:54;98900.44;;;26.96;45.68
69980;BME280;57318;56.232;43.944;2022-07-18T06:26:20;98897.56;;;27.03;45.61
69980;BME280;57318;56.232;43.944;2022-07-18T06:28:47;98889.59;;;27.30;45.42
69980;BME280;57318;56.232;43.944;2022-07-18T06:31:12;98895.59;;;27.44;45.10
69980;BME280;57318;56.232;43.944;2022-07-18T06:33:42;98887.66;;;27.76;44.81
69980;BME280;57318;56.232;43.944;2022-07-18T06:36:08;98875.72;;;28.16;44.00
69980;BME280;57318;56.232;43.944;2022-07-18T06:38:34;98883.50;;;28.69;42.39
69980;BME280;57318;56.232;43.944;2022-07-18T06:41:00;98882.03;;;29.05;41.50
69980;BME280;57318;56.232;43.944;2022-07-18T06:43:26;98875.03;;;29.47;40.92
69980;BME280;57318;56.232;43.944;2022-07-18T06:45:52;98878.59;;;29.47;40.30
69980;BME280;57318;56.232;43.944;2022-07-18T06:48:18;98871.34;;;29.63;40.19
69980;BME280;57318;56.232;43.944;2022-07-18T06:50:43;98884.59;;;29.44;40.09
69980;BME280;57318;56.232;43.944;2022-07-18T06:53:09;98877.31;;;29.01;41.15
69980;BME280;57318;56.232;43.944;2022-07-18T06:55:35;98876.19;;;28.52;42.26
69980;BME280;57318;56.232;43.944;2022-07-18T06:58:00;98865.97;;;28.20;43.00
69980;BME280;57318;56.232;43.944;2022-07-18T07:00:26;98872.28;;;27.53;44.59
69980;BME280;57318;56.232;43.944;2022-07-18T07:02:52;98870.06;;;27.04;45.88
69980;BME280;57318;56.232;43.944;2022-07-18T07:05:19;98870.06;;;26.63;46.81
69980;BME280;57318;56.232;43.944;2022-07-18T07:07:46;98868.50;;;26.15;48.19
69980;BME280;57318;56.232;43.944;2022-07-18T07:10:12;98864.25;;;26.07;48.90
69980;BME280;57318;56.232;43.944;2022-07-18T07:12:42;98865.41;;;26.23;48.28
69980;BME280;57318;56.232;43.944;2022-07-18T07:15:08;98860.03;;;26.52;47.63
69980;BME280;57318;56.232;43.944;2022-07-18T07:17:35;98864.50;;;26.70;47.24
69980;BME280;57318;56.232;43.944;2022-07-18T07:20:03;98863.38;;;26.83;45.84
69980;BME280;57318;56.232;43.944;2022-07-18T07:22:29;98863.09;;;26.56;46.32
69980;BME280;57318;56.232;43.944;2022-07-18T07:24:55;98842.59;;;26.53;46.84
69980;BME280;57318;56.232;43.944;2022-07-18T07:27:21;98828.25;;;26.58;46.88
69980;BME280;57318;56.232;43.944;2022-07-18T07:29:46;98819.66;;;26.49;47.14
69980;BME280;57318;56.232;43.944;2022-07-18T07:32:12;98816.78;;;26.15;47.90
69980;BME280;57318;56.232;43.944;2022-07-18T07:34:38;98812.78;;;25.82;48.77
69980;BME280;57318;56.232;43.944;2022-07-18T07:37:03;98808.59;;;25.32;50.04
69980;BME280;57318;56.232;43.944;2022-07-18T07:39:29;98801.47;;;25.08;50.82
69980;BME280;57318;56.232;43.944;2022-07-18T07:41:55;98809.41;;;24.79;51.72
69980;BME280;57318;56.232;43.944;2022-07-18T07:44:20;98800.47;;;24.41;53.15
69980;BME280;57318;56.232;43.944;2022-07-18T07:46:46;98807.59;;;24.24;53.61
69980;BME280;57318;56.232;43.944;2022-07-18T07:49:12;98803.81;;;24.06;53.96
69980;BME280;57318;56.232;43.944;2022-07-18T07:51:38;98795.31;;;24.03;54.17
69980;BME280;57318;56.232;43.944;2022-07-18T07:54:03;98782.97;;;23.88;54.86
69980;BME280;57318;56.232;43.944;2022-07-18T07:56:31;98778.75;;;23.67;55.83
69980;BME280;57318;56.232;43.944;2022-07-18T07:58:57;98783.22;;;23.62;56.21
69980;BME280;57318;56.232;43.944;2022-07-18T08:01:23;98772.69;;;23.28;58.76
69980;BME280;57318;56.232;43.944;2022-07-18T08:03:48;98761.72;;;23.16;58.74
69980;BME280;57318;56.232;43.944;2022-07-18T08:06:15;98754.34;;;22.98;60.48
69980;BME280;57318;56.232;43.944;2022-07-18T08:08:41;98752.38;;;22.80;59.82
69980;BME280;57318;56.232;43.944;2022-07-18T08:11:06;98743.50;;;22.66;60.28
69980;BME280;57318;56.232;43.944;2022-07-18T08:13:32;98738.25;;;22.40;62.56
69980;BME280;57318;56.232;43.944;2022-07-18T08:15:58;98734.66;;;22.07;64.57
69980;BME280;57318;56.232;43.944;2022-07-18T08:18:23;98748.63;;;21.97;65.33
69980;BME280;57318;56.232;43.944;2022-07-18T08:20:49;98755.16;;;21.76;66.75
69980;BME280;57318;56.232;43.944;2022-07-18T08:23:15;98754.97;;;21.71;67.37
69980;BME280;57318;56.232;43.944;2022-07-18T08:25:43;98766.16;;;21.81;67.28
69980;BME280;57318;56.232;43.944;2022-07-18T08:28:10;98774.03;;;21.96;67.56
69980;BME280;57318;56.232;43.944;2022-07-18T08:30:37;98766.91;;;22.02;67.23
69980;BME280;57318;56.232;43.944;2022-07-18T08:33:03;98761.41;;;22.36;66.10
69980;BME280;57318;56.232;43.944;2022-07-18T08:35:30;98764.28;;;22.41;65.13
69980;BME280;57318;56.232;43.944;2022-07-18T08:37:57;98761.59;;;22.41;65.06
69980;BME280;57318;56.232;43.944;2022-07-18T08:40:23;98764.13;;;22.36;64.74
69980;BME280;57318;56.232;43.944;2022-07-18T08:42:51;98761.00;;;22.32;64.65
69980;BME280;57318;56.232;43.944;2022-07-18T08:45:20;98764.34;;;22.21;64.60
69980;BME280;57318;56.232;43.944;2022-07-18T08:47:50;98762.25;;;22.29;64.48
69980;BME280;57318;56.232;43.944;2022-07-18T08:50:16;98763.00;;;22.50;63.19
69980;BME280;57318;56.232;43.944;2022-07-18T08:52:42;98762.94;;;22.57;63.05
69980;BME280;57318;56.232;43.944;2022-07-18T08:55:09;98760.13;;;22.45;63.37
69980;BME280;57318;56.232;43.944;2022-07-18T08:57:37;98758.88;;;22.41;62.95
69980;BME280;57318;56.232;43.944;2022-07-18T09:00:05;98763.97;;;22.17;65.08
69980;BME280;57318;56.232;43.944;2022-07-18T09:02:31;98760.84;;;22.13;64.70
69980;BME280;57318;56.232;43.944;2022-07-18T09:05:00;98772.72;;;22.12;64.19
69980;BME280;57318;56.232;43.944;2022-07-18T09:07:33;98769.63;;;22.09;64.23
69980;BME280;57318;56.232;43.944;2022-07-18T09:10:03;98762.72;;;22.13;63.66
69980;BME280;57318;56.232;43.944;2022-07-18T09:12:30;98763.75;;;22.19;62.98
69980;BME280;57318;56.232;43.944;2022-07-18T09:15:13;98774.53;;;22.32;63.14
69980;BME280;57318;56.232;43.944;2022-07-18T09:17:41;98775.84;;;22.61;61.33
69980;BME280;57318;56.232;43.944;2022-07-18T09:25:39;98785.84;;;22.54;61.93
69980;BME280;57318;56.232;43.944;2022-07-18T09:28:08;98776.53;;;21.98;61.62
69980;BME280;57318;56.232;43.944;2022-07-18T09:30:34;98772.03;;;21.52;62.47
69980;BME280;57318;56.232;43.944;2022-07-18T09:35:31;98746.06;;;20.90;64.31
69980;BME280;57318;56.232;43.944;2022-07-18T09:38:08;98731.66;;;20.57;64.96
69980;BME280;57318;56.232;43.944;2022-07-18T09:43:01;98733.31;;;19.82;66.97
69980;BME280;57318;56.232;43.944;2022-07-18T09:45:34;98735.56;;;19.51;66.99
69980;BME280;57318;56.232;43.944;2022-07-18T09:48:08;98729.56;;;19.20;68.13
69980;BME280;57318;56.232;43.944;2022-07-18T09:50:39;98724.09;;;19.07;68.18
69980;BME280;57318;56.232;43.944;2022-07-18T09:53:14;98717.84;;;19.06;68.31
69980;BME280;57318;56.232;43.944;2022-07-18T09:55:45;98712.25;;;19.01;68.47
69980;BME280;57318;56.232;43.944;2022-07-18T09:58:11;98722.88;;;18.88;68.76
69980;BME280;57318;56.232;43.944;2022-07-18T10:00:38;98728.66;;;18.85;68.70
69980;BME280;57318;56.232;43.944;2022-07-18T10:03:06;98720.38;;;18.86;69.15
69980;BME280;57318;56.232;43.944;2022-07-18T10:05:36;98704.03;;;18.88;69.51
69980;BME280;57318;56.232;43.944;2022-07-18T10:08:06;98703.78;;;18.83;70.04
69980;BME280;57318;56.232;43.944;2022-07-18T10:10:32;98707.00;;;18.71;70.55
69980;BME280;57318;56.232;43.944;2022-07-18T10:12:59;98701.38;;;18.66;71.43
69980;BME280;57318;56.232;43.944;2022-07-18T10:15:28;98713.91;;;18.59;71.00
69980;BME280;57318;56.232;43.944;2022-07-18T10:17:54;98703.28;;;18.51;70.86
69980;BME280;57318;56.232;43.944;2022-07-18T10:20:30;98696.38;;;18.42;71.38
69980;BME280;57318;56.232;43.944;2022-07-18T10:22:59;98695.97;;;18.45;70.83
69980;BME280;57318;56.232;43.944;2022-07-18T10:25:26;98695.59;;;18.48;70.65
69980;BME280;57318;56.232;43.944;2022-07-18T10:27:53;98697.31;;;18.55;70.08
69980;BME280;57318;56.232;43.944;2022-07-18T10:33:00;98691.38;;;18.60;69.34
69980;BME280;57318;56.232;43.944;2022-07-18T10:35:58;98678.31;;;18.57;69.15
69980;BME280;57318;56.232;43.944;2022-07-18T10:38:25;98674.97;;;18.55;68.72
69980;BME280;57318;56.232;43.944;2022-07-18T10:41:08;98669.72;;;18.47;69.07
69980;BME280;57318;56.232;43.944;2022-07-18T10:43:37;98672.28;;;18.33;69.37
69980;BME280;57318;56.232;43.944;2022-07-18T10:46:05;98690.16;;;18.04;70.65
69980;BME280;57318;56.232;43.944;2022-07-18T10:51:12;98704.19;;;17.85;72.33
69980;BME280;57318;56.232;43.944;2022-07-18T10:59:20;98671.41;;;17.60;74.96
69980;BME280;57318;56.232;43.944;2022-07-18T11:01:52;98664.03;;;17.32;76.71
69980;BME280;57318;56.232;43.944;2022-07-18T11:07:06;98680.41;;;17.07;78.37
69980;BME280;57318;56.232;43.944;2022-07-18T11:09:40;98674.19;;;16.92;79.73
69980;BME280;57318;56.232;43.944;2022-07-18T11:12:31;98655.13;;;16.87;80.37
69980;BME280;57318;56.232;43.944;2022-07-18T11:22:51;98700.66;;;16.72;82.88
69980;BME280;57318;56.232;43.944;2022-07-18T11:25:18;98705.31;;;16.78;82.41
69980;BME280;57318;56.232;43.944;2022-07-18T11:27:44;98698.94;;;16.79;82.34
69980;BME280;57318;56.232;43.944;2022-07-18T11:30:16;98719.25;;;16.73;82.50
69980;BME280;57318;56.232;43.944;2022-07-18T11:32:41;98734.53;;;16.73;83.05
69980;BME280;57318;56.232;43.944;2022-07-18T11:35:07;98751.81;;;16.70;82.90
69980;BME280;57318;56.232;43.944;2022-07-18T11:37:34;98762.06;;;16.67;83.26
69980;BME280;57318;56.232;43.944;2022-07-18T11:40:08;98752.97;;;16.68;83.07
69980;BME280;57318;56.232;43.944;2022-07-18T11:42:37;98737.44;;;16.63;83.09
69980;BME280;57318;56.232;43.944;2022-07-18T11:45:07;98737.63;;;16.62;82.77
69980;BME280;57318;56.232;43.944;2022-07-18T11:47:45;98726.91;;;16.62;82.85
69980;BME280;57318;56.232;43.944;2022-07-18T11:50:12;98712.94;;;16.66;83.29
69980;BME280;57318;56.232;43.944;2022-07-18T11:52:38;98707.69;;;16.73;83.06
69980;BME280;57318;56.232;43.944;2022-07-18T11:55:04;98699.22;;;16.84;82.56
69980;BME280;57318;56.232;43.944;2022-07-18T11:57:31;98684.91;;;16.92;82.44
69980;BME280;57318;56.232;43.944;2022-07-18T11:59:58;98680.84;;;16.96;82.25
69980;BME280;57318;56.232;43.944;2022-07-18T12:02:24;98680.66;;;16.98;82.35
69980;BME280;57318;56.232;43.944;2022-07-18T12:04:50;98671.88;;;17.04;81.84
69980;BME280;57318;56.232;43.944;2022-07-18T12:07:23;98658.75;;;17.09;81.24
69980;BME280;57318;56.232;43.944;2022-07-18T12:09:49;98658.38;;;17.12;81.21
69980;BME280;57318;56.232;43.944;2022-07-18T12:12:17;98644.59;;;17.15;81.33
69980;BME280;57318;56.232;43.944;2022-07-18T12:15:01;98626.91;;;17.21;81.44
69980;BME280;57318;56.232;43.944;2022-07-18T12:17:29;98623.28;;;17.28;81.54
69980;BME280;57318;56.232;43.944;2022-07-18T12:20:15;98614.31;;;17.36;82.17
69980;BME280;57318;56.232;43.944;2022-07-18T12:23:02;98602.44;;;17.45;81.87
69980;BME280;57318;56.232;43.944;2022-07-18T12:25:56;98595.94;;;17.55;81.72
69980;BME280;57318;56.232;43.944;2022-07-18T12:28:24;98593.53;;;17.60;81.82
69980;BME280;57318;56.232;43.944;2022-07-18T12:30:51;98601.19;;;17.63;81.75
69980;BME280;57318;56.232;43.944;2022-07-18T12:33:17;98599.25;;;17.72;81.52
69980;BME280;57318;56.232;43.944;2022-07-18T12:35:43;98603.84;;;17.78;81.14
69980;BME280;57318;56.232;43.944;2022-07-18T12:38:14;98611.47;;;17.89;80.82
69980;BME280;57318;56.232;43.944;2022-07-18T12:40:42;98619.00;;;18.00;80.46
69980;BME280;57318;56.232;43.944;2022-07-18T12:43:15;98621.25;;;18.18;80.07
69980;BME280;57318;56.232;43.944;2022-07-18T12:45:42;98609.09;;;18.23;79.73
69980;BME280;57318;56.232;43.944;2022-07-18T12:48:11;98600.06;;;18.30;78.95
69980;BME280;57318;56.232;43.944;2022-07-18T12:50:38;98594.16;;;18.42;78.69
69980;BME280;57318;56.232;43.944;2022-07-18T12:53:04;98583.81;;;18.45;78.42
69980;BME280;57318;56.232;43.944;2022-07-18T12:55:30;98581.34;;;18.44;78.16
69980;BME280;57318;56.232;43.944;2022-07-18T12:57:56;98581.34;;;18.44;77.96
69980;BME280;57318;56.232;43.944;2022-07-18T13:00:22;98562.25;;;18.38;78.02
69980;BME280;57318;56.232;43.944;2022-07-18T13:02:48;98564.19;;;18.45;77.79
69980;BME280;57318;56.232;43.944;2022-07-18T13:05:13;98571.34;;;18.66;77.53
69980;BME280;57318;56.232;43.944;2022-07-18T13:07:40;98564.34;;;18.93;76.79
69980;BME280;57318;56.232;43.944;2022-07-18T13:10:06;98573.97;;;19.16;75.83
69980;BME280;57318;56.232;43.944;2022-07-18T13:12:32;98577.88;;;19.68;74.49
69980;BME280;57318;56.232;43.944;2022-07-18T13:14:58;98587.56;;;20.11;73.06
69980;BME280;57318;56.232;43.944;2022-07-18T13:17:23;98596.31;;;20.33;71.93
69980;BME280;57318;56.232;43.944;2022-07-18T13:19:49;98595.88;;;20.43;70.63
69980;BME280;57318;56.232;43.944;2022-07-18T13:22:16;98592.97;;;20.44;69.67